sensor_id;sensor_type;location;lat;lon;timestamp;pressure;altitude;pressure_sealevel;temperature;humidity
3122;BME280;1571;52.524;14.104;2023-04-07T00:01:58;101446.47;;;-0.15;91.73
3122;BME280;1571;52.524;14.104;2023-04-07T00:04:26;101448.28;;;-0.26;92.09
3122;BME280;1571;52.524;14.104;2023-04-07T00:06:55;101445.63;;;-0.18;92.31
3122;BME280;1571;52.524;14.104;2023-04-07T00:09:25;101442.09;;;-0.11;92.24
3122;BME280;1571;52.524;14.104;2023-04-07T00:11:53;101444.66;;;-0.04;92.25
3122;BME280;1571;52.524;14.104;2023-04-07T00:14:22;101439.47;;;-0.08;92.46
3122;BME280;1571;52.524;14.104;2023-04-07T00:16:50;101431.72;;;-0.17;91.85
3122;BME280;1571;52.524;14.104;2023-04-07T00:19:18;101441.22;;;-0.09;91.51
3122;BME280;1571;52.524;14.104;2023-04-07T00:21:46;101438.59;;;-0.04;91.33
3122;BME280;1571;52.524;14.104;2023-04-07T00:24:14;101439.50;;;-0.13;91.60
3122;BME280;1571;52.524;14.104;2023-04-07T00:27:01;101441.22;;;-0.12;91.77
3122;BME280;1571;52.524;14.104;2023-04-07T00:29:29;101435.13;;;-0.09;91.71
3122;BME280;1571;52.524;14.104;2023-04-07T00:31:57;101429.81;;;0.03;91.14
3122;BME280;1571;52.524;14.104;2023-04-07T00:34:25;101436.84;;;-0.04;91.27
3122;BME280;1571;52.524;14.104;2023-04-07T00:36:53;101439.50;;;-0.13;91.26
3122;BME280;1571;52.524;14.104;2023-04-07T00:39:22;101426.38;;;-0.02;90.80
3122;BME280;1571;52.524;14.104;2023-04-07T00:41:50;101422.09;;;-0.11;90.74
3122;BME280;1571;52.524;14.104;2023-04-07T00:44:20;101424.78;;;-0.22;91.53
3122;BME280;1571;52.524;14.104;2023-04-07T00:46:48;101423.81;;;-0.08;91.76
3122;BME280;1571;52.524;14.104;2023-04-07T00:49:16;101422.00;;;0.05;91.57
3122;BME280;1571;52.524;14.104;2023-04-07T00:51:45;101422.97;;;-0.10;91.71
3122;BME280;1571;52.524;14.104;2023-04-07T00:54:14;101423.75;;;0.03;91.46
3122;BME280;1571;52.524;14.104;2023-04-07T00:56:42;101426.31;;;0.04;91.04
3122;BME280;1571;52.524;14.104;2023-04-07T00:59:11;101418.81;;;-0.44;91.48
3122;BME280;1571;52.524;14.104;2023-04-07T01:01:43;101421.31;;;-0.25;91.38
3122;BME280;1571;52.524;14.104;2023-04-07T01:04:21;101415.44;;;-0.58;91.76
3122;BME280;1571;52.524;14.104;2023-04-07T01:06:56;101408.56;;;-0.71;92.71
3122;BME280;1571;52.524;14.104;2023-04-07T01:09:36;101417.31;;;-0.86;93.38
3122;BME280;1571;52.524;14.104;2023-04-07T01:12:11;101405.16;;;-0.89;94.35
3122;BME280;1571;52.524;14.104;2023-04-07T01:14:46;101412.78;;;-0.47;94.25
3122;BME280;1571;52.524;14.104;2023-04-07T01:17:36;101405.63;;;-0.21;94.08
3122;BME280;1571;52.524;14.104;2023-04-07T01:20:08;101403.72;;;0.03;93.68
3122;BME280;1571;52.524;14.104;2023-04-07T01:22:42;101403.66;;;0.09;93.59
3122;BME280;1571;52.524;14.104;2023-04-07T01:25:22;101397.56;;;0.09;93.19
3122;BME280;1571;52.524;14.104;2023-04-07T01:27:59;101397.59;;;0.06;93.10
3122;BME280;1571;52.524;14.104;2023-04-07T01:30:38;101403.75;;;0.00;93.39
3122;BME280;1571;52.524;14.104;2023-04-07T01:33:09;101401.91;;;0.10;93.29
3122;BME280;1571;52.524;14.104;2023-04-07T01:35:38;101391.41;;;0.17;93.43
3122;BME280;1571;52.524;14.104;2023-04-07T01:38:08;101391.44;;;0.14;93.50
3122;BME280;1571;52.524;14.104;2023-04-07T01:40:38;101393.09;;;0.22;93.23
3122;BME280;1571;52.524;14.104;2023-04-07T01:43:07;101389.97;;;-0.19;93.99
3122;BME280;1571;52.524;14.104;2023-04-07T01:45:38;101394.31;;;-0.21;94.80
3122;BME280;1571;52.524;14.104;2023-04-07T01:48:08;101391.53;;;0.02;95.07
3122;BME280;1571;52.524;14.104;2023-04-07T01:50:37;101389.13;;;-0.27;95.03
3122;BME280;1571;52.524;14.104;2023-04-07T01:53:05;101385.66;;;-0.25;95.50
3122;BME280;1571;52.524;14.104;2023-04-07T01:55:34;101386.03;;;0.33;95.12
3122;BME280;1571;52.524;14.104;2023-04-07T01:58:06;101385.53;;;-0.06;94.90
3122;BME280;1571;52.524;14.104;2023-04-07T02:00:39;101383.41;;;0.31;94.92
3122;BME280;1571;52.524;14.104;2023-04-07T02:03:19;101390.25;;;0.45;94.43
3122;BME280;1571;52.524;14.104;2023-04-07T02:05:53;101389.31;;;0.52;93.72
3122;BME280;1571;52.524;14.104;2023-04-07T02:08:27;101375.44;;;0.48;93.95
3122;BME280;1571;52.524;14.104;2023-04-07T02:10:59;101392.25;;;0.21;94.06
3122;BME280;1571;52.524;14.104;2023-04-07T02:13:33;101373.72;;;0.46;94.14
3122;BME280;1571;52.524;14.104;2023-04-07T02:16:05;101375.38;;;0.51;93.67
3122;BME280;1571;52.524;14.104;2023-04-07T02:18:34;101368.50;;;0.44;93.45
3122;BME280;1571;52.524;14.104;2023-04-07T02:21:04;101368.75;;;0.18;93.00
3122;BME280;1571;52.524;14.104;2023-04-07T02:23:34;101370.50;;;0.17;93.19
3122;BME280;1571;52.524;14.104;2023-04-07T02:26:02;101366.47;;;-0.21;93.64
3122;BME280;1571;52.524;14.104;2023-04-07T02:28:31;101369.94;;;-0.18;93.50
3122;BME280;1571;52.524;14.104;2023-04-07T02:30:59;101373.03;;;0.28;93.34
3122;BME280;1571;52.524;14.104;2023-04-07T02:33:28;101370.34;;;0.34;93.12
3122;BME280;1571;52.524;14.104;2023-04-07T02:35:57;101363.75;;;-0.02;93.20
3122;BME280;1571;52.524;14.104;2023-04-07T02:38:27;101366.94;;;0.28;93.54
3122;BME280;1571;52.524;14.104;2023-04-07T02:40:56;101359.72;;;0.51;93.04
3122;BME280;1571;52.524;14.104;2023-04-07T02:43:24;101356.13;;;0.61;92.39
3122;BME280;1571;52.524;14.104;2023-04-07T02:45:52;101353.63;;;0.52;91.95
3122;BME280;1571;52.524;14.104;2023-04-07T02:48:22;101355.63;;;0.26;91.96
3122;BME280;1571;52.524;14.104;2023-04-07T02:50:52;101352.72;;;0.52;91.75
3122;BME280;1571;52.524;14.104;2023-04-07T02:53:20;101353.63;;;0.52;91.79
3122;BME280;1571;52.524;14.104;2023-04-07T02:55:48;101351.88;;;0.51;91.33
3122;BME280;1571;52.524;14.104;2023-04-07T02:58:17;101352.50;;;0.72;91.05
3122;BME280;1571;52.524;14.104;2023-04-07T03:00:46;101350.06;;;0.58;91.22
3122;BME280;1571;52.524;14.104;2023-04-07T03:03:21;101349.97;;;0.66;91.18
3122;BME280;1571;52.524;14.104;2023-04-07T03:06:05;101350.84;;;0.68;91.25
3122;BME280;1571;52.524;14.104;2023-04-07T03:08:40;101344.72;;;0.69;91.37
3122;BME280;1571;52.524;14.104;2023-04-07T03:11:08;101345.75;;;0.55;91.10
3122;BME280;1571;52.524;14.104;2023-04-07T03:13:36;101340.66;;;0.43;90.94
3122;BME280;1571;52.524;14.104;2023-04-07T03:16:05;101340.63;;;0.46;91.03
3122;BME280;1571;52.524;14.104;2023-04-07T03:18:43;101346.53;;;0.60;91.12
3122;BME280;1571;52.524;14.104;2023-04-07T03:21:12;101349.09;;;0.67;90.72
3122;BME280;1571;52.524;14.104;2023-04-07T03:23:41;101339.16;;;0.17;90.98
3122;BME280;1571;52.524;14.104;2023-04-07T03:26:09;101342.59;;;0.24;90.92
3122;BME280;1571;52.524;14.104;2023-04-07T03:28:38;101343.94;;;0.60;90.34
3122;BME280;1571;52.524;14.104;2023-04-07T03:31:06;101331.47;;;0.81;90.69
3122;BME280;1571;52.524;14.104;2023-04-07T03:33:34;101341.13;;;0.77;90.83
3122;BME280;1571;52.524;14.104;2023-04-07T03:36:03;101336.44;;;0.30;91.17
3122;BME280;1571;52.524;14.104;2023-04-07T03:38:33;101336.41;;;0.34;91.95
3122;BME280;1571;52.524;14.104;2023-04-07T03:41:04;101336.06;;;0.62;92.30
3122;BME280;1571;52.524;14.104;2023-04-07T03:43:32;101331.03;;;0.48;92.73
3122;BME280;1571;52.524;14.104;2023-04-07T03:46:01;101330.34;;;1.02;92.42
3122;BME280;1571;52.524;14.104;2023-04-07T03:48:30;101331.25;;;0.99;91.85
3122;BME280;1571;52.524;14.104;2023-04-07T03:51:06;101324.34;;;0.95;92.00
3122;BME280;1571;52.524;14.104;2023-04-07T03:53:36;101328.66;;;0.98;91.32
3122;BME280;1571;52.524;14.104;2023-04-07T03:56:16;101328.38;;;1.19;91.03
3122;BME280;1571;52.524;14.104;2023-04-07T03:58:47;101327.59;;;1.11;91.50
3122;BME280;1571;52.524;14.104;2023-04-07T04:01:24;101328.59;;;1.01;91.32
3122;BME280;1571;52.524;14.104;2023-04-07T04:03:54;101327.63;;;1.10;91.70
3122;BME280;1571;52.524;14.104;2023-04-07T04:06:25;101325.59;;;1.30;91.64
3122;BME280;1571;52.524;14.104;2023-04-07T04:09:02;101325.19;;;0.97;91.82
3122;BME280;1571;52.524;14.104;2023-04-07T04:11:34;101324.66;;;0.71;92.36
3122;BME280;1571;52.524;14.104;2023-04-07T04:14:04;101336.25;;;1.18;92.39
3122;BME280;1571;52.524;14.104;2023-04-07T04:16:34;101327.59;;;1.11;92.21
3122;BME280;1571;52.524;14.104;2023-04-07T04:19:09;101325.78;;;1.15;91.97
3122;BME280;1571;52.524;14.104;2023-04-07T04:21:37;101324.94;;;1.14;91.86
3122;BME280;1571;52.524;14.104;2023-04-07T04:24:08;101335.44;;;1.13;92.33
3122;BME280;1571;52.524;14.104;2023-04-07T04:26:36;101333.69;;;1.12;92.76
3122;BME280;1571;52.524;14.104;2023-04-07T04:29:10;101331.38;;;0.90;92.72
3122;BME280;1571;52.524;14.104;2023-04-07T04:31:41;101326.66;;;1.17;92.53
3122;BME280;1571;52.524;14.104;2023-04-07T04:34:10;101332.50;;;1.34;92.65
3122;BME280;1571;52.524;14.104;2023-04-07T04:36:40;101334.25;;;1.35;92.76
3122;BME280;1571;52.524;14.104;2023-04-07T04:39:11;101334.34;;;1.29;92.57
3122;BME280;1571;52.524;14.104;2023-04-07T04:41:39;101334.25;;;1.35;93.28
3122;BME280;1571;52.524;14.104;2023-04-07T04:44:09;101328.75;;;1.51;93.10
3122;BME280;1571;52.524;14.104;2023-04-07T04:46:40;101327.97;;;1.45;93.05
3122;BME280;1571;52.524;14.104;2023-04-07T04:49:09;101328.88;;;1.43;92.99
3122;BME280;1571;52.524;14.104;2023-04-07T04:51:38;101342.75;;;1.50;92.81
3122;BME280;1571;52.524;14.104;2023-04-07T04:54:15;101335.56;;;1.62;92.77
3122;BME280;1571;52.524;14.104;2023-04-07T04:56:44;101334.13;;;1.41;92.74
3122;BME280;1571;52.524;14.104;2023-04-07T04:59:12;101338.19;;;1.62;92.31
3122;BME280;1571;52.524;14.104;2023-04-07T05:01:51;101338.44;;;1.45;91.46
3122;BME280;1571;52.524;14.104;2023-04-07T05:04:20;101334.19;;;1.38;91.01
3122;BME280;1571;52.524;14.104;2023-04-07T05:06:57;101333.72;;;1.69;90.37
3122;BME280;1571;52.524;14.104;2023-04-07T05:09:29;101329.59;;;1.53;89.83
3122;BME280;1571;52.524;14.104;2023-04-07T05:11:58;101331.03;;;1.74;89.19
3122;BME280;1571;52.524;14.104;2023-04-07T05:14:30;101329.28;;;1.74;88.96
3122;BME280;1571;52.524;14.104;2023-04-07T05:17:04;101334.34;;;1.85;88.59
3122;BME280;1571;52.524;14.104;2023-04-07T05:19:32;101330.06;;;1.79;88.29
3122;BME280;1571;52.524;14.104;2023-04-07T05:22:08;101329.91;;;1.88;88.39
3122;BME280;1571;52.524;14.104;2023-04-07T05:24:44;101328.34;;;1.78;88.28
3122;BME280;1571;52.524;14.104;2023-04-07T05:27:13;101333.00;;;1.59;88.55
3122;BME280;1571;52.524;14.104;2023-04-07T05:29:42;101326.13;;;1.54;89.26
3122;BME280;1571;52.524;14.104;2023-04-07T05:32:19;101315.94;;;1.88;88.61
3122;BME280;1571;52.524;14.104;2023-04-07T05:34:47;101325.47;;;1.94;87.38
3122;BME280;1571;52.524;14.104;2023-04-07T05:37:16;101335.09;;;1.92;87.21
3122;BME280;1571;52.524;14.104;2023-04-07T05:39:47;101333.09;;;2.06;87.43
3122;BME280;1571;52.524;14.104;2023-04-07T05:42:15;101336.66;;;2.02;87.26
3122;BME280;1571;52.524;14.104;2023-04-07T05:44:48;101341.84;;;2.05;86.87
3122;BME280;1571;52.524;14.104;2023-04-07T05:47:19;101334.50;;;2.25;86.81
3122;BME280;1571;52.524;14.104;2023-04-07T05:49:49;101333.50;;;2.31;86.21
3122;BME280;1571;52.524;14.104;2023-04-07T05:52:18;101334.44;;;2.27;85.92
3122;BME280;1571;52.524;14.104;2023-04-07T05:54:54;101339.56;;;2.35;85.59
3122;BME280;1571;52.524;14.104;2023-04-07T05:57:26;101331.34;;;2.52;85.01
3122;BME280;1571;52.524;14.104;2023-04-07T05:59:56;101330.00;;;2.32;85.44
3122;BME280;1571;52.524;14.104;2023-04-07T06:02:25;101340.56;;;2.27;85.38
3122;BME280;1571;52.524;14.104;2023-04-07T06:04:54;101340.72;;;2.63;84.95
3122;BME280;1571;52.524;14.104;2023-04-07T06:07:22;101347.03;;;2.55;84.41
3122;BME280;1571;52.524;14.104;2023-04-07T06:09:50;101345.19;;;2.60;85.03
3122;BME280;1571;52.524;14.104;2023-04-07T06:12:20;101344.38;;;2.56;84.41
3122;BME280;1571;52.524;14.104;2023-04-07T06:14:52;101340.00;;;2.57;84.81
3122;BME280;1571;52.524;14.104;2023-04-07T06:17:21;101331.69;;;2.80;84.83
3122;BME280;1571;52.524;14.104;2023-04-07T06:19:49;101347.75;;;2.63;84.40
3122;BME280;1571;52.524;14.104;2023-04-07T06:22:17;101342.41;;;2.67;84.55
3122;BME280;1571;52.524;14.104;2023-04-07T06:24:45;101345.75;;;2.76;84.52
3122;BME280;1571;52.524;14.104;2023-04-07T06:27:14;101341.53;;;2.68;84.77
3122;BME280;1571;52.524;14.104;2023-04-07T06:29:43;101341.91;;;2.92;84.75
3122;BME280;1571;52.524;14.104;2023-04-07T06:32:13;101348.50;;;3.10;84.42
3122;BME280;1571;52.524;14.104;2023-04-07T06:34:41;101356.34;;;2.69;84.13
3122;BME280;1571;52.524;14.104;2023-04-07T06:37:09;101351.59;;;2.88;84.88
3122;BME280;1571;52.524;14.104;2023-04-07T06:39:38;101349.13;;;2.81;84.31
3122;BME280;1571;52.524;14.104;2023-04-07T06:42:06;101357.19;;;2.71;84.44
3122;BME280;1571;52.524;14.104;2023-04-07T06:44:38;101348.44;;;2.73;84.72
3122;BME280;1571;52.524;14.104;2023-04-07T06:47:08;101345.16;;;3.03;84.59
3122;BME280;1571;52.524;14.104;2023-04-07T06:49:36;101343.25;;;3.10;84.47
3122;BME280;1571;52.524;14.104;2023-04-07T06:52:04;101343.13;;;3.18;84.71
3122;BME280;1571;52.524;14.104;2023-04-07T06:54:33;101348.94;;;2.90;84.55
3122;BME280;1571;52.524;14.104;2023-04-07T06:57:01;101355.50;;;2.69;84.33
3122;BME280;1571;52.524;14.104;2023-04-07T06:59:29;101358.94;;;2.73;84.00
3122;BME280;1571;52.524;14.104;2023-04-07T07:01:57;101347.25;;;2.86;84.13
3122;BME280;1571;52.524;14.104;2023-04-07T07:04:27;101344.94;;;3.14;84.33
3122;BME280;1571;52.524;14.104;2023-04-07T07:06:56;101350.72;;;3.28;84.39
3122;BME280;1571;52.524;14.104;2023-04-07T07:09:24;101353.03;;;3.03;84.20
3122;BME280;1571;52.524;14.104;2023-04-07T07:11:53;101357.50;;;2.98;83.98
3122;BME280;1571;52.524;14.104;2023-04-07T07:14:21;101355.63;;;3.44;83.68
3122;BME280;1571;52.524;14.104;2023-04-07T07:16:50;101356.53;;;3.43;83.65
3122;BME280;1571;52.524;14.104;2023-04-07T07:19:18;101357.72;;;3.29;82.83
3122;BME280;1571;52.524;14.104;2023-04-07T07:21:47;101356.06;;;3.24;82.39
3122;BME280;1571;52.524;14.104;2023-04-07T07:24:15;101362.78;;;3.37;82.44
3122;BME280;1571;52.524;14.104;2023-04-07T07:26:44;101360.50;;;3.22;82.23
3122;BME280;1571;52.524;14.104;2023-04-07T07:29:12;101360.66;;;3.16;81.95
3122;BME280;1571;52.524;14.104;2023-04-07T07:31:40;101360.97;;;3.00;82.05
3122;BME280;1571;52.524;14.104;2023-04-07T07:34:08;101366.38;;;3.33;81.94
3122;BME280;1571;52.524;14.104;2023-04-07T07:36:37;101362.91;;;3.31;81.43
3122;BME280;1571;52.524;14.104;2023-04-07T07:39:06;101367.38;;;3.27;80.84
3122;BME280;1571;52.524;14.104;2023-04-07T07:41:34;101368.72;;;3.45;80.66
3122;BME280;1571;52.524;14.104;2023-04-07T07:44:02;101367.28;;;3.32;80.45
3122;BME280;1571;52.524;14.104;2023-04-07T07:46:31;101367.94;;;3.42;79.94
3122;BME280;1571;52.524;14.104;2023-04-07T07:48:59;101367.06;;;3.41;79.15
3122;BME280;1571;52.524;14.104;2023-04-07T07:51:27;101370.53;;;3.43;79.12
3122;BME280;1571;52.524;14.104;2023-04-07T07:53:56;101371.97;;;3.57;78.71
3122;BME280;1571;52.524;14.104;2023-04-07T07:56:25;101380.06;;;3.47;78.99
3122;BME280;1571;52.524;14.104;2023-04-07T07:58:53;101382.25;;;3.66;78.84
3122;BME280;1571;52.524;14.104;2023-04-07T08:01:24;101387.09;;;3.47;78.86
3122;BME280;1571;52.524;14.104;2023-04-07T08:03:52;101383.41;;;3.54;79.16
3122;BME280;1571;52.524;14.104;2023-04-07T08:06:21;101399.69;;;3.70;79.93
3122;BME280;1571;52.524;14.104;2023-04-07T08:08:49;101396.13;;;3.71;78.70
3122;BME280;1571;52.524;14.104;2023-04-07T08:11:17;101387.25;;;3.39;78.50
3122;BME280;1571;52.524;14.104;2023-04-07T08:13:47;101397.91;;;3.31;78.88
3122;BME280;1571;52.524;14.104;2023-04-07T08:16:15;101390.38;;;3.55;78.48
3122;BME280;1571;52.524;14.104;2023-04-07T08:18:45;101403.59;;;3.50;78.24
3122;BME280;1571;52.524;14.104;2023-04-07T08:21:14;101394.91;;;3.48;78.48
3122;BME280;1571;52.524;14.104;2023-04-07T08:23:42;101396.28;;;3.26;78.43
3122;BME280;1571;52.524;14.104;2023-04-07T08:26:10;101397.41;;;3.14;78.89
3122;BME280;1571;52.524;14.104;2023-04-07T08:28:38;101394.06;;;3.46;79.17
3122;BME280;1571;52.524;14.104;2023-04-07T08:31:08;101401.59;;;3.62;79.42
3122;BME280;1571;52.524;14.104;2023-04-07T08:33:36;101397.41;;;3.54;79.32
3122;BME280;1571;52.524;14.104;2023-04-07T08:36:05;101404.94;;;3.70;79.74
3122;BME280;1571;52.524;14.104;2023-04-07T08:38:33;101395.72;;;3.52;79.49
3122;BME280;1571;52.524;14.104;2023-04-07T08:41:03;101410.78;;;3.42;79.98
3122;BME280;1571;52.524;14.104;2023-04-07T08:43:32;101421.16;;;3.48;80.58
3122;BME280;1571;52.524;14.104;2023-04-07T08:46:02;101418.66;;;3.81;80.63
3122;BME280;1571;52.524;14.104;2023-04-07T08:48:33;101413.56;;;3.75;80.67
3122;BME280;1571;52.524;14.104;2023-04-07T08:51:04;101418.28;;;3.59;80.63
3122;BME280;1571;52.524;14.104;2023-04-07T08:53:37;101424.28;;;3.66;80.84
3122;BME280;1571;52.524;14.104;2023-04-07T08:56:08;101410.09;;;3.73;81.10
3122;BME280;1571;52.524;14.104;2023-04-07T08:58:38;101413.78;;;3.66;79.90
3122;BME280;1571;52.524;14.104;2023-04-07T09:01:08;101407.13;;;3.88;79.75
3122;BME280;1571;52.524;14.104;2023-04-07T09:03:38;101404.06;;;3.69;79.79
3122;BME280;1571;52.524;14.104;2023-04-07T09:06:08;101410.13;;;4.07;79.62
3122;BME280;1571;52.524;14.104;2023-04-07T09:08:37;101413.56;;;3.75;79.15
3122;BME280;1571;52.524;14.104;2023-04-07T09:11:05;101421.81;;;3.95;79.08
3122;BME280;1571;52.524;14.104;2023-04-07T09:13:33;101415.78;;;3.92;79.46
3122;BME280;1571;52.524;14.104;2023-04-07T09:16:01;101425.97;;;4.06;79.94
3122;BME280;1571;52.524;14.104;2023-04-07T09:18:30;101432.78;;;3.77;80.34
3122;BME280;1571;52.524;14.104;2023-04-07T09:21:01;101429.00;;;4.25;79.97
3122;BME280;1571;52.524;14.104;2023-04-07T09:23:31;101422.56;;;4.01;78.97
3122;BME280;1571;52.524;14.104;2023-04-07T09:26:18;101428.03;;;3.91;77.87
3122;BME280;1571;52.524;14.104;2023-04-07T09:28:52;101426.56;;;3.80;77.70
3122;BME280;1571;52.524;14.104;2023-04-07T09:31:21;101425.50;;;3.88;77.41
3122;BME280;1571;52.524;14.104;2023-04-07T09:33:52;101418.00;;;4.09;77.15
3122;BME280;1571;52.524;14.104;2023-04-07T09:36:23;101425.41;;;3.91;77.55
3122;BME280;1571;52.524;14.104;2023-04-07T09:38:52;101428.72;;;4.00;78.72
3122;BME280;1571;52.524;14.104;2023-04-07T09:41:21;101439.63;;;4.20;79.77
3122;BME280;1571;52.524;14.104;2023-04-07T09:43:55;101431.22;;;4.06;80.02
3122;BME280;1571;52.524;14.104;2023-04-07T09:46:24;101432.34;;;3.94;80.87
3122;BME280;1571;52.524;14.104;2023-04-07T09:49:00;101436.50;;;3.67;81.76
3122;BME280;1571;52.524;14.104;2023-04-07T09:51:32;101438.56;;;3.91;82.27
3122;BME280;1571;52.524;14.104;2023-04-07T09:54:00;101434.97;;;3.94;82.84
3122;BME280;1571;52.524;14.104;2023-04-07T09:56:29;101438.59;;;3.90;82.93
3122;BME280;1571;52.524;14.104;2023-04-07T09:58:57;101439.22;;;4.01;82.86
3122;BME280;1571;52.524;14.104;2023-04-07T10:01:26;101427.94;;;3.96;82.61
3122;BME280;1571;52.524;14.104;2023-04-07T10:03:55;101438.50;;;3.55;83.43
3122;BME280;1571;52.524;14.104;2023-04-07T10:06:24;101435.41;;;3.77;83.43
3122;BME280;1571;52.524;14.104;2023-04-07T10:08:55;101440.72;;;3.74;83.62
3122;BME280;1571;52.524;14.104;2023-04-07T10:11:23;101436.16;;;3.42;83.96
3122;BME280;1571;52.524;14.104;2023-04-07T10:13:51;101436.50;;;3.67;84.76
3122;BME280;1571;52.524;14.104;2023-04-07T10:16:21;101432.81;;;4.11;85.16
3122;BME280;1571;52.524;14.104;2023-04-07T10:18:50;101434.22;;;3.90;85.70
3122;BME280;1571;52.524;14.104;2023-04-07T10:21:18;101443.59;;;3.21;86.37
3122;BME280;1571;52.524;14.104;2023-04-07T10:23:51;101436.25;;;3.39;87.17
3122;BME280;1571;52.524;14.104;2023-04-07T10:26:25;101432.69;;;3.80;88.00
3122;BME280;1571;52.524;14.104;2023-04-07T10:28:59;101430.25;;;3.72;87.76
3122;BME280;1571;52.524;14.104;2023-04-07T10:31:29;101424.19;;;3.69;88.69
3122;BME280;1571;52.524;14.104;2023-04-07T10:33:58;101435.91;;;3.91;88.95
3122;BME280;1571;52.524;14.104;2023-04-07T10:36:28;101427.22;;;3.89;89.40
3122;BME280;1571;52.524;14.104;2023-04-07T10:39:18;101424.78;;;3.82;89.97
3122;BME280;1571;52.524;14.104;2023-04-07T10:41:48;101424.09;;;4.09;90.57
3122;BME280;1571;52.524;14.104;2023-04-07T10:47:24;101429.41;;;3.72;91.46
3122;BME280;1571;52.524;14.104;2023-04-07T10:50:15;101424.97;;;3.74;91.85
3122;BME280;1571;52.524;14.104;2023-04-07T10:52:45;101419.66;;;3.37;92.55
3122;BME280;1571;52.524;14.104;2023-04-07T10:55:31;101417.66;;;3.49;93.74
3122;BME280;1571;52.524;14.104;2023-04-07T10:58:14;101419.06;;;4.02;94.04
3122;BME280;1571;52.524;14.104;2023-04-07T11:01:15;101425.13;;;4.04;93.48
3122;BME280;1571;52.524;14.104;2023-04-07T11:03:58;101412.03;;;4.02;93.68
3122;BME280;1571;52.524;14.104;2023-04-07T11:06:30;101420.47;;;3.79;94.36
3122;BME280;1571;52.524;14.104;2023-04-07T11:08:58;101421.03;;;3.54;95.04
3122;BME280;1571;52.524;14.104;2023-04-07T11:11:40;101432.56;;;3.85;95.79
3122;BME280;1571;52.524;14.104;2023-04-07T11:14:10;101423.19;;;3.76;96.32
3122;BME280;1571;52.524;14.104;2023-04-07T11:16:40;101425.00;;;3.72;96.46
3122;BME280;1571;52.524;14.104;2023-04-07T11:19:09;101414.16;;;3.86;96.70
3122;BME280;1571;52.524;14.104;2023-04-07T11:21:38;101407.34;;;4.15;96.56
3122;BME280;1571;52.524;14.104;2023-04-07T11:24:06;101417.97;;;4.10;96.72
3122;BME280;1571;52.524;14.104;2023-04-07T11:26:38;101415.69;;;3.96;96.46
3122;BME280;1571;52.524;14.104;2023-04-07T11:29:07;101405.28;;;3.92;96.96
3122;BME280;1571;52.524;14.104;2023-04-07T11:31:37;101403.28;;;4.02;96.82
3122;BME280;1571;52.524;14.104;2023-04-07T11:34:06;101405.81;;;4.05;97.20
3122;BME280;1571;52.524;14.104;2023-04-07T11:36:38;101411.31;;;3.95;97.67
3122;BME280;1571;52.524;14.104;2023-04-07T11:39:17;101406.91;;;3.96;97.28
3122;BME280;1571;52.524;14.104;2023-04-07T11:41:47;101404.66;;;4.16;97.88
3122;BME280;1571;52.524;14.104;2023-04-07T11:44:16;101399.06;;;4.30;97.73
3122;BME280;1571;52.524;14.104;2023-04-07T11:46:56;101399.84;;;4.34;97.51
3122;BME280;1571;52.524;14.104;2023-04-07T11:49:25;101408.81;;;3.89;97.22
3122;BME280;1571;52.524;14.104;2023-04-07T11:52:01;101396.88;;;4.12;97.92
3122;BME280;1571;52.524;14.104;2023-04-07T11:54:39;101401.75;;;4.27;97.65
3122;BME280;1571;52.524;14.104;2023-04-07T11:57:08;101397.41;;;3.92;98.12
3122;BME280;1571;52.524;14.104;2023-04-07T11:59:38;101398.31;;;4.25;98.62
3122;BME280;1571;52.524;14.104;2023-04-07T12:02:09;101392.53;;;4.45;98.59
3122;BME280;1571;52.524;14.104;2023-04-07T12:04:37;101395.03;;;4.17;97.89
3122;BME280;1571;52.524;14.104;2023-04-07T12:07:08;101397.22;;;4.00;97.96
3122;BME280;1571;52.524;14.104;2023-04-07T12:09:36;101391.81;;;4.38;98.77
3122;BME280;1571;52.524;14.104;2023-04-07T12:12:06;101383.19;;;4.35;97.97
3122;BME280;1571;52.524;14.104;2023-04-07T12:14:36;101389.81;;;4.14;98.20
3122;BME280;1571;52.524;14.104;2023-04-07T12:17:04;101385.22;;;4.24;98.20
3122;BME280;1571;52.524;14.104;2023-04-07T12:19:35;101396.75;;;4.18;98.78
3122;BME280;1571;52.524;14.104;2023-04-07T12:22:05;101387.72;;;4.28;99.12
3122;BME280;1571;52.524;14.104;2023-04-07T12:24:34;101379.94;;;4.58;99.16
3122;BME280;1571;52.524;14.104;2023-04-07T12:27:02;101376.31;;;4.62;98.81
3122;BME280;1571;52.524;14.104;2023-04-07T12:29:30;101371.13;;;4.59;98.70
3122;BME280;1571;52.524;14.104;2023-04-07T12:31:59;101385.09;;;4.61;98.70
3122;BME280;1571;52.524;14.104;2023-04-07T12:34:27;101381.13;;;4.12;99.50
3122;BME280;1571;52.524;14.104;2023-04-07T12:36:57;101380.13;;;4.17;100.00
3122;BME280;1571;52.524;14.104;2023-04-07T12:39:25;101378.09;;;4.27;100.00
3122;BME280;1571;52.524;14.104;2023-04-07T12:41:53;101384.13;;;4.32;100.00
3122;BME280;1571;52.524;14.104;2023-04-07T12:44:21;101393.28;;;4.16;100.00
3122;BME280;1571;52.524;14.104;2023-04-07T12:46:49;101380.47;;;4.36;100.00
3122;BME280;1571;52.524;14.104;2023-04-07T12:49:18;101373.19;;;4.48;100.00
3122;BME280;1571;52.524;14.104;2023-04-07T12:51:46;101386.44;;;4.43;100.00
3122;BME280;1571;52.524;14.104;2023-04-07T12:54:15;101381.06;;;4.15;100.00
3122;BME280;1571;52.524;14.104;2023-04-07T12:56:44;101389.91;;;4.11;100.00
3122;BME280;1571;52.524;14.104;2023-04-07T12:59:12;101386.94;;;4.25;100.00
3122;BME280;1571;52.524;14.104;2023-04-07T13:01:40;101389.38;;;4.32;100.00
3122;BME280;1571;52.524;14.104;2023-04-07T13:04:09;101386.63;;;4.37;100.00
3122;BME280;1571;52.524;14.104;2023-04-07T13:06:37;101386.38;;;4.46;100.00
3122;BME280;1571;52.524;14.104;2023-04-07T13:09:06;101380.66;;;4.30;100.00
3122;BME280;1571;52.524;14.104;2023-04-07T13:11:35;101379.84;;;4.28;100.00
3122;BME280;1571;52.524;14.104;2023-04-07T13:14:04;101382.13;;;4.41;100.00
3122;BME280;1571;52.524;14.104;2023-04-07T13:16:33;101382.28;;;4.34;100.00
3122;BME280;1571;52.524;14.104;2023-04-07T13:19:01;101384.06;;;4.34;100.00
3122;BME280;1571;52.524;14.104;2023-04-07T13:21:30;101386.81;;;4.62;100.00
3122;BME280;1571;52.524;14.104;2023-04-07T13:24:01;101382.28;;;4.67;100.00
3122;BME280;1571;52.524;14.104;2023-04-07T13:26:29;101381.31;;;4.71;100.00
3122;BME280;1571;52.524;14.104;2023-04-07T13:28:59;101371.13;;;4.59;100.00
3122;BME280;1571;52.524;14.104;2023-04-07T13:31:27;101377.59;;;4.46;100.00